Terminal Aerodrome Forecast
Issued by NWS

Home | Current Version | Previous Version | Text Only | Print | Product List | Glossary On
Versions: 1 2 3 4 5 6 7 8 9 10 11 12 13 14 15 16 17
000
FTUS43 KBIS 221731
TAFJMS
TAF
KJMS 221731Z 2218/2318 34017G27KT P6SM BKN100
     FM222000 34017G25KT P6SM VCSH BKN070
     FM222200 34017G25KT P6SM OVC070
     FM230200 34011KT P6SM OVC050
     FM230700 35015G20KT P6SM BKN025=

USA.gov is the U.S. government's official web portal to all federal, state and local government web resources and services.